createdAt,value
2023-04-18T05:04:07.704Z,11.40
2023-04-18T05:09:11.168Z,11.30
2023-04-18T05:14:14.701Z,11.30
2023-04-18T05:19:19.565Z,11.30
2023-04-18T05:24:22.924Z,11.10
2023-04-18T05:29:26.520Z,11.20
2023-04-18T05:34:31.855Z,11.10
2023-04-18T05:39:35.282Z,11.10
2023-04-18T05:44:38.651Z,11.00
2023-04-18T05:49:43.472Z,11.00
2023-04-18T05:54:46.782Z,11.10
2023-04-18T05:59:50.122Z,11.00
2023-04-18T06:04:55.060Z,11.10
2023-04-18T06:09:58.838Z,11.10
2023-04-18T06:15:02.337Z,11.20
2023-04-18T06:20:07.746Z,11.30
2023-04-18T06:25:11.215Z,11.40
2023-04-18T06:30:15.029Z,11.40
2023-04-18T06:35:19.757Z,11.40
2023-04-18T06:40:23.097Z,11.50
2023-04-18T06:45:26.482Z,11.60
2023-04-18T06:50:31.382Z,11.70
2023-04-18T06:55:34.723Z,11.70
2023-04-18T07:00:38.030Z,11.80
2023-04-18T07:05:42.973Z,12.00
2023-04-18T07:10:46.351Z,12.10
2023-04-18T07:15:49.714Z,12.20
2023-04-18T07:20:54.409Z,12.30
2023-04-18T07:25:58.649Z,12.40
2023-04-18T07:31:03.187Z,12.50
2023-04-18T07:36:08.395Z,12.70
2023-04-18T07:41:11.956Z,12.90
2023-04-18T07:46:15.368Z,13.10
2023-04-18T07:51:20.085Z,13.20
2023-04-18T07:56:23.485Z,13.50
2023-04-18T08:01:28.898Z,13.80
2023-04-18T08:06:34.801Z,14.10
2023-04-18T08:11:39.021Z,14.30
2023-04-18T08:16:42.383Z,14.60
2023-04-18T08:21:47.104Z,14.70
2023-04-18T08:26:50.783Z,15.00
2023-04-18T08:31:54.154Z,15.20
2023-04-18T08:36:58.907Z,15.50
2023-04-18T08:42:03.297Z,16.50
2023-04-18T08:47:09.537Z,15.90
2023-04-18T08:52:14.909Z,16.10
2023-04-18T08:57:23.965Z,16.40
2023-04-18T09:02:42.097Z,16.70
2023-04-18T09:07:47.209Z,17.20
2023-04-18T09:12:52.186Z,17.90
2023-04-18T09:17:57.956Z,18.50
2023-04-18T09:23:03.842Z,19.20
2023-04-18T09:28:22.568Z,19.90
2023-04-18T09:33:28.283Z,20.40
2023-04-18T09:38:42.676Z,21.00
2023-04-18T09:43:46.647Z,21.60
2023-04-18T09:48:50.007Z,21.90
2023-04-18T09:53:54.953Z,22.10
2023-04-18T09:59:02.951Z,22.30
2023-04-18T10:04:07.980Z,22.70
2023-04-18T10:09:13.512Z,22.90
2023-04-18T10:14:17.443Z,23.00
2023-04-18T10:19:21.572Z,23.00
2023-04-18T10:24:49.778Z,23.20
2023-04-18T10:29:55.072Z,23.30
2023-04-18T10:35:00.347Z,23.30
2023-04-18T10:40:06.578Z,23.60
2023-04-18T10:45:21.000Z,23.80
2023-04-18T10:50:24.543Z,23.70
2023-04-18T10:55:29.784Z,23.30
2023-04-18T11:00:34.919Z,23.70
2023-04-18T11:05:38.290Z,24.20
2023-04-18T11:10:42.272Z,24.40
2023-04-18T11:15:47.071Z,25.40
2023-04-18T11:20:52.321Z,26.00
2023-04-18T11:25:56.656Z,26.60
2023-04-18T11:31:02.874Z,26.50
2023-04-18T11:36:06.502Z,26.60
2023-04-18T11:41:13.351Z,26.50
2023-04-18T11:46:18.236Z,26.80
2023-04-18T11:51:35.716Z,26.30
2023-04-18T11:56:46.635Z,26.20
2023-04-18T12:01:59.140Z,26.60
2023-04-18T12:07:02.874Z,26.60
2023-04-18T12:12:07.073Z,25.90
2023-04-18T12:17:13.809Z,25.80
2023-04-18T12:22:17.445Z,25.80
2023-04-18T12:27:20.865Z,26.00
2023-04-18T12:32:25.776Z,25.50
2023-04-18T12:37:29.615Z,24.70
2023-04-18T12:42:33.635Z,24.60
2023-04-18T12:47:38.661Z,21.90
2023-04-18T12:52:42.507Z,24.40
2023-04-18T12:57:45.936Z,24.70
2023-04-18T13:02:51.038Z,24.50
2023-04-18T13:08:08.661Z,23.80
2023-04-18T13:13:16.489Z,24.10
2023-04-18T13:18:21.669Z,24.90
2023-04-18T13:23:25.115Z,25.30
2023-04-18T13:28:28.445Z,24.80
2023-04-18T13:33:33.161Z,24.70
2023-04-18T13:38:36.467Z,24.80
2023-04-18T13:43:39.797Z,24.70
2023-04-18T13:48:44.541Z,24.10
2023-04-18T13:53:47.845Z,24.10
2023-04-18T13:58:51.160Z,24.80
2023-04-18T14:03:56.099Z,23.90
2023-04-18T14:08:59.685Z,23.40
2023-04-18T14:14:03.236Z,22.70
2023-04-18T14:19:08.077Z,22.20
2023-04-18T14:24:11.618Z,21.80
2023-04-18T14:29:15.352Z,21.30
2023-04-18T14:34:20.499Z,21.10
2023-04-18T14:39:24.749Z,21.50
2023-04-18T14:44:28.089Z,21.50
2023-04-18T14:49:32.787Z,21.00
2023-04-18T14:54:36.094Z,20.60
2023-04-18T14:59:39.401Z,20.00
2023-04-18T15:04:44.349Z,19.60
2023-04-18T15:09:47.757Z,19.20
2023-04-18T15:14:51.493Z,19.00
2023-04-18T15:19:56.357Z,18.70
2023-04-18T15:24:59.703Z,18.60
2023-04-18T15:30:03.847Z,18.80
2023-04-18T15:35:09.001Z,19.00
2023-04-18T15:40:16.217Z,19.30
2023-04-18T15:45:19.778Z,19.30
2023-04-18T15:50:27.570Z,18.90
2023-04-18T15:55:30.935Z,21.60
2023-04-18T16:00:34.249Z,18.00
2023-04-18T16:05:39.101Z,17.60
2023-04-18T16:10:42.548Z,17.40
2023-04-18T16:15:46.056Z,17.30
2023-04-18T16:20:51.828Z,17.20
2023-04-18T16:25:55.657Z,20.10
2023-04-18T16:30:58.985Z,17.20
2023-04-18T16:36:04.536Z,17.30
2023-04-18T16:41:07.908Z,17.40
2023-04-18T16:46:12.032Z,17.30
2023-04-18T16:51:16.857Z,17.10
2023-04-18T16:56:20.249Z,16.90
2023-04-18T17:01:23.742Z,16.80
2023-04-18T17:06:30.874Z,16.70
2023-04-18T17:11:38.773Z,17.20
2023-04-18T17:16:43.014Z,17.00
2023-04-18T17:21:49.120Z,17.00
2023-04-18T17:26:52.444Z,16.80
2023-04-18T17:31:55.783Z,16.50
2023-04-18T17:37:00.459Z,16.40
2023-04-18T17:42:03.867Z,16.30
2023-04-18T17:47:07.269Z,16.10
2023-04-18T17:52:11.979Z,15.90
2023-04-18T17:57:15.292Z,15.80
2023-04-18T18:02:18.730Z,15.50
2023-04-18T18:07:23.522Z,15.30
2023-04-18T18:12:26.961Z,15.10
2023-04-18T18:17:30.310Z,15.00
2023-04-18T18:22:35.113Z,14.80
2023-04-18T18:27:38.595Z,14.50
2023-04-18T18:32:42.398Z,14.50
2023-04-18T18:37:47.083Z,14.50
2023-04-18T18:42:51.458Z,14.40
2023-04-18T18:47:54.841Z,14.30
2023-04-18T18:53:01.720Z,14.40
2023-04-18T18:58:07.887Z,14.30
2023-04-18T19:03:11.305Z,14.30
2023-04-18T19:08:16.163Z,14.20
2023-04-18T19:13:22.523Z,14.10
2023-04-18T19:18:25.897Z,14.20
2023-04-18T19:23:31.286Z,14.20
2023-04-18T19:28:34.651Z,14.20
2023-04-18T19:33:38.579Z,14.20
2023-04-18T19:38:43.256Z,14.30
2023-04-18T19:43:46.746Z,16.80
2023-04-18T19:48:50.513Z,14.40
2023-04-18T19:53:56.057Z,14.40
2023-04-18T19:58:59.408Z,14.30
2023-04-18T20:04:02.923Z,14.20
2023-04-18T20:09:08.695Z,14.20
2023-04-18T20:14:12.051Z,14.50
2023-04-18T20:19:16.166Z,14.10
2023-04-18T20:24:22.128Z,14.10
2023-04-18T20:29:25.509Z,14.00
2023-04-18T20:34:28.860Z,14.00
2023-04-18T20:39:33.636Z,13.90
2023-04-18T20:44:36.962Z,13.90
2023-04-18T20:49:40.462Z,13.80
2023-04-18T20:54:45.121Z,13.80
2023-04-18T20:59:48.644Z,13.80
2023-04-18T21:04:52.173Z,13.70
2023-04-18T21:09:56.994Z,13.60
2023-04-18T21:15:00.524Z,13.60
2023-04-18T21:20:04.169Z,13.50
2023-04-18T21:25:09.449Z,13.50
2023-04-18T21:30:13.096Z,13.50
2023-04-18T21:35:19.382Z,13.50
2023-04-18T21:40:26.800Z,13.50
2023-04-18T21:45:30.224Z,13.50
2023-04-18T21:50:33.565Z,13.40
2023-04-18T21:55:38.270Z,13.40
2023-04-18T22:00:41.710Z,13.40
2023-04-18T22:05:47.247Z,13.40
2023-04-18T22:10:54.774Z,13.80
2023-04-18T22:15:58.711Z,13.50
2023-04-18T22:21:02.373Z,13.50
2023-04-18T22:26:07.140Z,13.40
